sensor_id;sensor_type;location;lat;lon;timestamp;P1;durP1;ratioP1;P2;durP2;ratioP2
40367;SDS011;26075;43.320;21.920;2024-03-06T06:58:30;30.73;;;18.95;;
40367;SDS011;26075;43.320;21.920;2024-03-06T07:03:31;33.13;;;20.73;;
40367;SDS011;26075;43.320;21.920;2024-03-06T07:08:32;28.92;;;19.33;;
40367;SDS011;26075;43.320;21.920;2024-03-06T07:13:33;41.40;;;22.30;;
40367;SDS011;26075;43.320;21.920;2024-03-06T07:18:34;36.95;;;22.48;;
40367;SDS011;26075;43.320;21.920;2024-03-06T07:23:35;43.85;;;28.70;;
40367;SDS011;26075;43.320;21.920;2024-03-06T07:28:36;41.17;;;27.80;;
40367;SDS011;26075;43.320;21.920;2024-03-06T07:33:37;36.45;;;24.88;;
40367;SDS011;26075;43.320;21.920;2024-03-06T07:38:38;39.42;;;23.85;;
40367;SDS011;26075;43.320;21.920;2024-03-06T07:43:39;31.75;;;23.38;;
40367;SDS011;26075;43.320;21.920;2024-03-06T07:48:44;33.75;;;23.45;;
40367;SDS011;26075;43.320;21.920;2024-03-06T07:53:45;35.25;;;24.17;;
40367;SDS011;26075;43.320;21.920;2024-03-06T07:58:46;36.53;;;24.02;;
40367;SDS011;26075;43.320;21.920;2024-03-06T08:03:47;40.83;;;24.08;;
40367;SDS011;26075;43.320;21.920;2024-03-06T08:08:48;34.42;;;23.73;;
40367;SDS011;26075;43.320;21.920;2024-03-06T08:13:56;38.08;;;24.63;;
40367;SDS011;26075;43.320;21.920;2024-03-06T08:18:57;38.08;;;24.83;;
40367;SDS011;26075;43.320;21.920;2024-03-06T08:23:59;36.80;;;22.67;;
40367;SDS011;26075;43.320;21.920;2024-03-06T08:29:01;39.30;;;24.60;;
40367;SDS011;26075;43.320;21.920;2024-03-06T08:34:02;37.72;;;22.63;;
40367;SDS011;26075;43.320;21.920;2024-03-06T08:39:03;36.92;;;22.77;;
40367;SDS011;26075;43.320;21.920;2024-03-06T08:44:05;38.30;;;25.02;;
40367;SDS011;26075;43.320;21.920;2024-03-06T08:49:06;33.58;;;21.70;;
40367;SDS011;26075;43.320;21.920;2024-03-06T08:54:07;31.45;;;21.83;;
40367;SDS011;26075;43.320;21.920;2024-03-06T08:59:10;36.33;;;23.55;;
40367;SDS011;26075;43.320;21.920;2024-03-06T09:04:11;37.63;;;23.30;;
40367;SDS011;26075;43.320;21.920;2024-03-06T09:09:12;36.65;;;22.50;;
40367;SDS011;26075;43.320;21.920;2024-03-06T09:14:15;28.17;;;19.75;;
40367;SDS011;26075;43.320;21.920;2024-03-06T09:19:16;29.60;;;18.60;;
40367;SDS011;26075;43.320;21.920;2024-03-06T09:24:17;31.98;;;22.13;;
40367;SDS011;26075;43.320;21.920;2024-03-06T09:29:18;30.67;;;21.58;;
40367;SDS011;26075;43.320;21.920;2024-03-06T09:34:19;32.85;;;22.52;;
40367;SDS011;26075;43.320;21.920;2024-03-06T09:39:21;34.55;;;22.80;;
40367;SDS011;26075;43.320;21.920;2024-03-06T09:44:25;31.15;;;21.58;;
40367;SDS011;26075;43.320;21.920;2024-03-06T09:49:26;35.95;;;24.42;;
40367;SDS011;26075;43.320;21.920;2024-03-06T09:54:28;40.08;;;24.98;;
40367;SDS011;26075;43.320;21.920;2024-03-06T09:59:30;38.88;;;25.75;;
40367;SDS011;26075;43.320;21.920;2024-03-06T10:04:32;44.53;;;27.35;;
40367;SDS011;26075;43.320;21.920;2024-03-06T10:09:37;35.03;;;24.80;;
40367;SDS011;26075;43.320;21.920;2024-03-06T10:14:38;39.38;;;26.80;;
40367;SDS011;26075;43.320;21.920;2024-03-06T10:19:39;37.58;;;25.17;;
40367;SDS011;26075;43.320;21.920;2024-03-06T10:24:40;41.10;;;25.85;;
40367;SDS011;26075;43.320;21.920;2024-03-06T10:29:41;37.30;;;24.40;;
40367;SDS011;26075;43.320;21.920;2024-03-06T10:34:44;40.97;;;24.30;;
40367;SDS011;26075;43.320;21.920;2024-03-06T10:39:45;37.05;;;23.33;;
40367;SDS011;26075;43.320;21.920;2024-03-06T10:44:51;38.38;;;25.65;;
40367;SDS011;26075;43.320;21.920;2024-03-06T10:49:53;42.13;;;28.33;;
40367;SDS011;26075;43.320;21.920;2024-03-06T10:54:54;39.92;;;26.17;;
40367;SDS011;26075;43.320;21.920;2024-03-06T10:59:58;40.60;;;25.83;;
40367;SDS011;26075;43.320;21.920;2024-03-06T11:05:00;38.90;;;25.83;;
40367;SDS011;26075;43.320;21.920;2024-03-06T11:10:05;37.97;;;26.77;;
40367;SDS011;26075;43.320;21.920;2024-03-06T11:15:16;42.38;;;27.13;;
40367;SDS011;26075;43.320;21.920;2024-03-06T11:20:18;38.45;;;25.77;;
40367;SDS011;26075;43.320;21.920;2024-03-06T11:30:45;37.30;;;24.58;;
40367;SDS011;26075;43.320;21.920;2024-03-06T11:41:06;35.25;;;24.45;;
40367;SDS011;26075;43.320;21.920;2024-03-06T11:46:09;36.88;;;25.13;;
40367;SDS011;26075;43.320;21.920;2024-03-06T11:51:10;38.70;;;24.38;;
40367;SDS011;26075;43.320;21.920;2024-03-06T11:56:11;32.40;;;22.08;;
40367;SDS011;26075;43.320;21.920;2024-03-06T12:01:12;31.88;;;20.52;;
40367;SDS011;26075;43.320;21.920;2024-03-06T12:06:14;27.40;;;19.55;;
40367;SDS011;26075;43.320;21.920;2024-03-06T12:11:17;28.05;;;18.80;;
40367;SDS011;26075;43.320;21.920;2024-03-06T12:16:18;28.65;;;18.50;;
40367;SDS011;26075;43.320;21.920;2024-03-06T12:21:19;23.55;;;18.10;;
40367;SDS011;26075;43.320;21.920;2024-03-06T12:26:22;29.15;;;20.45;;
40367;SDS011;26075;43.320;21.920;2024-03-06T12:31:23;27.35;;;18.63;;
40367;SDS011;26075;43.320;21.920;2024-03-06T12:36:25;29.58;;;20.08;;
40367;SDS011;26075;43.320;21.920;2024-03-06T12:41:26;31.05;;;19.92;;
40367;SDS011;26075;43.320;21.920;2024-03-06T12:46:28;30.83;;;18.83;;
40367;SDS011;26075;43.320;21.920;2024-03-06T12:51:30;34.28;;;19.95;;
40367;SDS011;26075;43.320;21.920;2024-03-06T12:56:32;27.80;;;18.95;;
40367;SDS011;26075;43.320;21.920;2024-03-06T13:01:33;25.50;;;17.92;;
40367;SDS011;26075;43.320;21.920;2024-03-06T13:06:35;30.70;;;18.48;;
40367;SDS011;26075;43.320;21.920;2024-03-06T13:11:36;28.52;;;19.83;;
40367;SDS011;26075;43.320;21.920;2024-03-06T13:16:37;26.52;;;18.80;;
40367;SDS011;26075;43.320;21.920;2024-03-06T13:21:38;29.05;;;17.83;;
40367;SDS011;26075;43.320;21.920;2024-03-06T13:26:39;27.30;;;17.13;;
40367;SDS011;26075;43.320;21.920;2024-03-06T13:31:40;21.67;;;16.05;;
40367;SDS011;26075;43.320;21.920;2024-03-06T13:36:41;23.80;;;16.08;;
40367;SDS011;26075;43.320;21.920;2024-03-06T13:41:43;17.73;;;13.30;;
40367;SDS011;26075;43.320;21.920;2024-03-06T13:46:44;24.70;;;14.27;;
40367;SDS011;26075;43.320;21.920;2024-03-06T13:51:45;21.15;;;13.07;;
40367;SDS011;26075;43.320;21.920;2024-03-06T13:56:46;18.25;;;13.52;;
40367;SDS011;26075;43.320;21.920;2024-03-06T14:01:47;20.33;;;12.88;;
40367;SDS011;26075;43.320;21.920;2024-03-06T14:06:49;15.98;;;12.52;;
40367;SDS011;26075;43.320;21.920;2024-03-06T14:11:50;22.73;;;13.18;;
40367;SDS011;26075;43.320;21.920;2024-03-06T14:16:51;10.50;;;8.48;;
40367;SDS011;26075;43.320;21.920;2024-03-06T14:21:52;15.10;;;9.02;;
40367;SDS011;26075;43.320;21.920;2024-03-06T14:26:53;16.27;;;10.55;;
40367;SDS011;26075;43.320;21.920;2024-03-06T14:31:55;15.35;;;10.90;;
40367;SDS011;26075;43.320;21.920;2024-03-06T14:36:56;18.10;;;11.27;;
40367;SDS011;26075;43.320;21.920;2024-03-06T14:41:57;16.42;;;11.50;;
40367;SDS011;26075;43.320;21.920;2024-03-06T14:46:59;15.82;;;11.57;;
40367;SDS011;26075;43.320;21.920;2024-03-06T14:52:00;14.48;;;10.70;;
40367;SDS011;26075;43.320;21.920;2024-03-06T14:57:02;17.45;;;9.55;;
40367;SDS011;26075;43.320;21.920;2024-03-06T15:02:03;12.57;;;10.18;;
40367;SDS011;26075;43.320;21.920;2024-03-06T15:07:04;15.10;;;10.68;;
40367;SDS011;26075;43.320;21.920;2024-03-06T15:12:05;16.65;;;10.65;;
40367;SDS011;26075;43.320;21.920;2024-03-06T15:17:06;15.23;;;10.68;;
40367;SDS011;26075;43.320;21.920;2024-03-06T15:22:07;16.65;;;10.40;;
40367;SDS011;26075;43.320;21.920;2024-03-06T15:27:08;15.60;;;11.80;;
40367;SDS011;26075;43.320;21.920;2024-03-06T15:32:09;13.90;;;10.10;;
40367;SDS011;26075;43.320;21.920;2024-03-06T15:37:10;15.40;;;11.35;;
40367;SDS011;26075;43.320;21.920;2024-03-06T15:42:11;20.00;;;11.73;;
40367;SDS011;26075;43.320;21.920;2024-03-06T15:47:12;19.10;;;11.55;;
40367;SDS011;26075;43.320;21.920;2024-03-06T15:52:13;14.73;;;10.93;;
40367;SDS011;26075;43.320;21.920;2024-03-06T15:57:15;16.83;;;11.70;;
40367;SDS011;26075;43.320;21.920;2024-03-06T16:02:18;16.58;;;10.75;;
40367;SDS011;26075;43.320;21.920;2024-03-06T16:07:19;14.98;;;11.05;;
40367;SDS011;26075;43.320;21.920;2024-03-06T16:12:20;17.88;;;11.52;;
40367;SDS011;26075;43.320;21.920;2024-03-06T16:17:22;17.45;;;12.15;;
40367;SDS011;26075;43.320;21.920;2024-03-06T16:22:23;18.67;;;12.40;;
40367;SDS011;26075;43.320;21.920;2024-03-06T16:27:24;17.58;;;12.82;;
40367;SDS011;26075;43.320;21.920;2024-03-06T16:32:25;17.13;;;11.90;;
40367;SDS011;26075;43.320;21.920;2024-03-06T16:37:26;17.35;;;12.45;;
40367;SDS011;26075;43.320;21.920;2024-03-06T16:42:27;17.88;;;13.07;;
40367;SDS011;26075;43.320;21.920;2024-03-06T16:47:28;17.73;;;13.38;;
40367;SDS011;26075;43.320;21.920;2024-03-06T16:52:29;16.48;;;13.60;;
40367;SDS011;26075;43.320;21.920;2024-03-06T16:57:30;20.15;;;13.77;;
40367;SDS011;26075;43.320;21.920;2024-03-06T17:02:31;18.10;;;14.55;;
40367;SDS011;26075;43.320;21.920;2024-03-06T17:07:32;19.20;;;13.55;;
40367;SDS011;26075;43.320;21.920;2024-03-06T17:12:33;17.33;;;13.65;;
40367;SDS011;26075;43.320;21.920;2024-03-06T17:17:37;19.30;;;14.10;;
40367;SDS011;26075;43.320;21.920;2024-03-06T17:22:39;19.52;;;13.23;;
40367;SDS011;26075;43.320;21.920;2024-03-06T17:27:40;19.63;;;14.30;;
40367;SDS011;26075;43.320;21.920;2024-03-06T17:32:41;20.45;;;14.38;;
40367;SDS011;26075;43.320;21.920;2024-03-06T17:37:43;26.13;;;14.82;;
40367;SDS011;26075;43.320;21.920;2024-03-06T17:42:44;19.65;;;14.05;;
40367;SDS011;26075;43.320;21.920;2024-03-06T17:47:45;21.02;;;14.90;;
40367;SDS011;26075;43.320;21.920;2024-03-06T17:52:46;24.10;;;15.90;;
40367;SDS011;26075;43.320;21.920;2024-03-06T17:57:47;21.50;;;15.45;;
40367;SDS011;26075;43.320;21.920;2024-03-06T18:02:48;18.88;;;14.73;;
40367;SDS011;26075;43.320;21.920;2024-03-06T18:07:51;21.65;;;15.52;;
40367;SDS011;26075;43.320;21.920;2024-03-06T18:12:52;24.92;;;19.45;;
40367;SDS011;26075;43.320;21.920;2024-03-06T18:17:53;23.48;;;17.33;;
40367;SDS011;26075;43.320;21.920;2024-03-06T18:22:54;28.85;;;21.40;;
40367;SDS011;26075;43.320;21.920;2024-03-06T18:27:55;31.30;;;23.15;;
40367;SDS011;26075;43.320;21.920;2024-03-06T18:32:56;29.05;;;21.75;;
40367;SDS011;26075;43.320;21.920;2024-03-06T18:37:58;30.20;;;20.70;;
40367;SDS011;26075;43.320;21.920;2024-03-06T18:43:00;27.08;;;21.10;;
40367;SDS011;26075;43.320;21.920;2024-03-06T18:48:01;27.17;;;20.23;;
40367;SDS011;26075;43.320;21.920;2024-03-06T18:53:02;28.80;;;20.50;;
40367;SDS011;26075;43.320;21.920;2024-03-06T18:58:03;30.45;;;22.42;;
40367;SDS011;26075;43.320;21.920;2024-03-06T19:03:05;31.88;;;24.52;;
40367;SDS011;26075;43.320;21.920;2024-03-06T19:08:06;38.83;;;26.02;;
40367;SDS011;26075;43.320;21.920;2024-03-06T19:13:07;32.10;;;25.90;;
40367;SDS011;26075;43.320;21.920;2024-03-06T19:18:08;33.33;;;25.25;;
40367;SDS011;26075;43.320;21.920;2024-03-06T19:23:10;36.58;;;28.48;;
40367;SDS011;26075;43.320;21.920;2024-03-06T19:28:11;36.13;;;25.17;;
40367;SDS011;26075;43.320;21.920;2024-03-06T19:33:12;35.05;;;26.65;;
40367;SDS011;26075;43.320;21.920;2024-03-06T19:38:13;36.85;;;26.85;;
40367;SDS011;26075;43.320;21.920;2024-03-06T19:43:17;31.15;;;24.60;;
40367;SDS011;26075;43.320;21.920;2024-03-06T19:48:18;31.40;;;24.38;;
40367;SDS011;26075;43.320;21.920;2024-03-06T19:53:19;33.33;;;25.00;;
40367;SDS011;26075;43.320;21.920;2024-03-06T19:58:21;35.63;;;25.33;;
40367;SDS011;26075;43.320;21.920;2024-03-06T20:03:22;37.30;;;22.30;;
40367;SDS011;26075;43.320;21.920;2024-03-06T20:08:23;30.33;;;22.38;;
40367;SDS011;26075;43.320;21.920;2024-03-06T20:13:25;32.10;;;21.27;;
40367;SDS011;26075;43.320;21.920;2024-03-06T20:18:26;31.52;;;22.20;;
40367;SDS011;26075;43.320;21.920;2024-03-06T20:23:27;39.28;;;24.48;;
40367;SDS011;26075;43.320;21.920;2024-03-06T20:28:28;35.75;;;25.83;;
40367;SDS011;26075;43.320;21.920;2024-03-06T20:33:29;36.60;;;24.45;;
40367;SDS011;26075;43.320;21.920;2024-03-06T20:38:30;32.33;;;22.70;;
40367;SDS011;26075;43.320;21.920;2024-03-06T20:43:32;32.25;;;23.13;;
40367;SDS011;26075;43.320;21.920;2024-03-06T20:48:38;32.78;;;24.13;;
40367;SDS011;26075;43.320;21.920;2024-03-06T20:53:39;32.10;;;24.52;;
40367;SDS011;26075;43.320;21.920;2024-03-06T20:58:41;34.25;;;24.55;;
40367;SDS011;26075;43.320;21.920;2024-03-06T21:03:42;32.85;;;23.45;;
40367;SDS011;26075;43.320;21.920;2024-03-06T21:08:43;35.03;;;24.95;;
40367;SDS011;26075;43.320;21.920;2024-03-06T21:13:45;32.65;;;24.98;;
40367;SDS011;26075;43.320;21.920;2024-03-06T21:18:46;34.80;;;26.55;;
40367;SDS011;26075;43.320;21.920;2024-03-06T21:23:47;39.38;;;30.17;;
40367;SDS011;26075;43.320;21.920;2024-03-06T21:28:48;42.63;;;30.67;;
40367;SDS011;26075;43.320;21.920;2024-03-06T21:33:53;45.95;;;31.77;;
40367;SDS011;26075;43.320;21.920;2024-03-06T21:38:54;42.22;;;29.75;;
40367;SDS011;26075;43.320;21.920;2024-03-06T21:43:55;37.05;;;29.17;;
40367;SDS011;26075;43.320;21.920;2024-03-06T21:48:56;37.97;;;27.70;;
40367;SDS011;26075;43.320;21.920;2024-03-06T21:53:57;41.25;;;27.73;;
40367;SDS011;26075;43.320;21.920;2024-03-06T21:58:59;40.88;;;29.13;;
40367;SDS011;26075;43.320;21.920;2024-03-06T22:04:00;38.65;;;27.88;;
40367;SDS011;26075;43.320;21.920;2024-03-06T22:09:01;39.15;;;27.70;;
40367;SDS011;26075;43.320;21.920;2024-03-06T22:14:02;36.08;;;26.80;;
40367;SDS011;26075;43.320;21.920;2024-03-06T22:19:04;41.03;;;28.70;;
40367;SDS011;26075;43.320;21.920;2024-03-06T22:24:05;42.03;;;31.38;;
40367;SDS011;26075;43.320;21.920;2024-03-06T22:29:06;40.75;;;30.52;;
40367;SDS011;26075;43.320;21.920;2024-03-06T22:34:10;42.75;;;31.23;;
40367;SDS011;26075;43.320;21.920;2024-03-06T22:39:11;42.10;;;30.88;;
40367;SDS011;26075;43.320;21.920;2024-03-06T22:44:12;34.85;;;26.55;;
40367;SDS011;26075;43.320;21.920;2024-03-06T22:49:13;41.42;;;27.75;;
40367;SDS011;26075;43.320;21.920;2024-03-06T22:54:14;38.80;;;27.70;;
40367;SDS011;26075;43.320;21.920;2024-03-06T22:59:16;34.83;;;25.33;;
40367;SDS011;26075;43.320;21.920;2024-03-06T23:04:17;35.22;;;25.75;;
40367;SDS011;26075;43.320;21.920;2024-03-06T23:09:18;31.35;;;23.50;;
40367;SDS011;26075;43.320;21.920;2024-03-06T23:14:19;33.08;;;22.52;;
40367;SDS011;26075;43.320;21.920;2024-03-06T23:19:21;29.88;;;22.15;;
40367;SDS011;26075;43.320;21.920;2024-03-06T23:24:22;30.20;;;21.65;;
40367;SDS011;26075;43.320;21.920;2024-03-06T23:29:23;30.58;;;22.67;;
40367;SDS011;26075;43.320;21.920;2024-03-06T23:34:24;30.35;;;23.13;;
40367;SDS011;26075;43.320;21.920;2024-03-06T23:39:25;36.58;;;24.45;;
40367;SDS011;26075;43.320;21.920;2024-03-06T23:44:26;32.70;;;24.40;;
40367;SDS011;26075;43.320;21.920;2024-03-06T23:49:27;33.22;;;24.27;;
40367;SDS011;26075;43.320;21.920;2024-03-06T23:54:28;37.60;;;24.80;;
40367;SDS011;26075;43.320;21.920;2024-03-06T23:59:29;37.10;;;26.02;;
